sensor_id;sensor_type;location;lat;lon;timestamp;pressure;altitude;pressure_sealevel;temperature;humidity
36138;BME280;67787;50.074;21.904;2024-02-16T02:50:48;99728.27;;;0.37;71.32
36138;BME280;67787;50.074;21.904;2024-02-16T02:53:17;99727.02;;;0.30;71.36
36138;BME280;67787;50.074;21.904;2024-02-16T02:55:46;99728.50;;;0.25;71.28
36138;BME280;67787;50.074;21.904;2024-02-16T02:58:15;99731.55;;;0.21;71.44
36138;BME280;67787;50.074;21.904;2024-02-16T03:00:44;99732.17;;;0.17;71.41
36138;BME280;67787;50.074;21.904;2024-02-16T03:03:12;99733.73;;;0.17;71.54
36138;BME280;67787;50.074;21.904;2024-02-16T03:05:42;99731.80;;;0.18;71.68
36138;BME280;67787;50.074;21.904;2024-02-16T03:08:10;99733.86;;;0.20;71.57
36138;BME280;67787;50.074;21.904;2024-02-16T03:10:38;99729.71;;;0.17;71.50
36138;BME280;67787;50.074;21.904;2024-02-16T03:13:07;99730.92;;;0.18;71.63
36138;BME280;67787;50.074;21.904;2024-02-16T03:15:37;99732.75;;;0.23;71.78
36138;BME280;67787;50.074;21.904;2024-02-16T03:18:07;99737.56;;;0.26;71.83
36138;BME280;67787;50.074;21.904;2024-02-16T03:20:37;99738.25;;;0.26;71.79
36138;BME280;67787;50.074;21.904;2024-02-16T03:23:05;99737.89;;;0.27;71.62
36138;BME280;67787;50.074;21.904;2024-02-16T03:25:32;99742.85;;;0.23;71.59
36138;BME280;67787;50.074;21.904;2024-02-16T03:28:00;99742.31;;;0.24;71.66
36138;BME280;67787;50.074;21.904;2024-02-16T03:30:29;99742.48;;;0.23;71.58
36138;BME280;67787;50.074;21.904;2024-02-16T03:32:57;99737.10;;;0.22;71.66
36138;BME280;67787;50.074;21.904;2024-02-16T03:35:25;99738.70;;;0.21;71.98
36138;BME280;67787;50.074;21.904;2024-02-16T03:37:53;99738.89;;;0.21;71.95
36138;BME280;67787;50.074;21.904;2024-02-16T03:40:22;99737.38;;;0.18;72.00
36138;BME280;67787;50.074;21.904;2024-02-16T03:42:53;99740.01;;;0.17;71.87
36138;BME280;67787;50.074;21.904;2024-02-16T03:45:21;99741.56;;;0.18;72.03
36138;BME280;67787;50.074;21.904;2024-02-16T03:47:50;99742.93;;;0.19;72.08
36138;BME280;67787;50.074;21.904;2024-02-16T03:50:20;99741.90;;;0.19;72.03
36138;BME280;67787;50.074;21.904;2024-02-16T03:52:50;99742.48;;;0.16;71.78
36138;BME280;67787;50.074;21.904;2024-02-16T03:55:18;99742.29;;;0.16;71.96
36138;BME280;67787;50.074;21.904;2024-02-16T03:57:47;99740.91;;;0.15;71.98
36138;BME280;67787;50.074;21.904;2024-02-16T04:00:15;99742.53;;;0.13;71.99
36138;BME280;67787;50.074;21.904;2024-02-16T04:02:43;99744.98;;;0.12;72.02
36138;BME280;67787;50.074;21.904;2024-02-16T04:05:13;99745.55;;;0.10;72.15
36138;BME280;67787;50.074;21.904;2024-02-16T04:07:41;99746.23;;;0.11;72.04
36138;BME280;67787;50.074;21.904;2024-02-16T04:10:09;99747.06;;;0.13;72.09
36138;BME280;67787;50.074;21.904;2024-02-16T04:12:38;99747.54;;;0.16;72.01
36138;BME280;67787;50.074;21.904;2024-02-16T04:15:06;99745.66;;;0.13;71.95
36138;BME280;67787;50.074;21.904;2024-02-16T04:17:35;99746.80;;;0.09;71.90
36138;BME280;67787;50.074;21.904;2024-02-16T04:20:03;99748.60;;;0.04;71.75
36138;BME280;67787;50.074;21.904;2024-02-16T04:22:31;99746.20;;;0.03;72.09
36138;BME280;67787;50.074;21.904;2024-02-16T04:25:05;99745.70;;;0.02;71.95
36138;BME280;67787;50.074;21.904;2024-02-16T04:27:33;99749.91;;;0.00;71.93
36138;BME280;67787;50.074;21.904;2024-02-16T04:30:04;99750.63;;;-0.01;71.84
36138;BME280;67787;50.074;21.904;2024-02-16T04:32:32;99749.11;;;-0.04;72.00
36138;BME280;67787;50.074;21.904;2024-02-16T04:35:00;99745.66;;;-0.06;71.99
36138;BME280;67787;50.074;21.904;2024-02-16T04:37:29;99747.42;;;-0.07;71.97
36138;BME280;67787;50.074;21.904;2024-02-16T04:39:57;99745.89;;;-0.09;71.83
36138;BME280;67787;50.074;21.904;2024-02-16T04:42:29;99743.67;;;-0.11;71.91
36138;BME280;67787;50.074;21.904;2024-02-16T04:44:57;99741.92;;;-0.11;71.94
36138;BME280;67787;50.074;21.904;2024-02-16T04:47:27;99740.54;;;-0.12;71.89
36138;BME280;67787;50.074;21.904;2024-02-16T04:49:55;99741.80;;;-0.14;72.19
36138;BME280;67787;50.074;21.904;2024-02-16T04:52:23;99736.41;;;-0.15;71.99
36138;BME280;67787;50.074;21.904;2024-02-16T04:54:56;99737.98;;;-0.16;72.20
36138;BME280;67787;50.074;21.904;2024-02-16T04:57:24;99738.72;;;-0.18;72.05
36138;BME280;67787;50.074;21.904;2024-02-16T04:59:52;99736.13;;;-0.19;72.05
36138;BME280;67787;50.074;21.904;2024-02-16T05:02:20;99739.31;;;-0.21;72.05
36138;BME280;67787;50.074;21.904;2024-02-16T05:04:48;99740.05;;;-0.24;72.01
36138;BME280;67787;50.074;21.904;2024-02-16T05:07:16;99745.66;;;-0.25;72.10
36138;BME280;67787;50.074;21.904;2024-02-16T05:09:46;99747.05;;;-0.25;72.01
36138;BME280;67787;50.074;21.904;2024-02-16T05:12:14;99749.88;;;-0.27;72.14
36138;BME280;67787;50.074;21.904;2024-02-16T05:14:42;99755.13;;;-0.29;72.14
36138;BME280;67787;50.074;21.904;2024-02-16T05:17:10;99749.38;;;-0.29;72.13
36138;BME280;67787;50.074;21.904;2024-02-16T05:19:40;99750.40;;;-0.28;72.25
36138;BME280;67787;50.074;21.904;2024-02-16T05:22:09;99750.22;;;-0.27;72.07
36138;BME280;67787;50.074;21.904;2024-02-16T05:24:37;99746.25;;;-0.30;72.21
36138;BME280;67787;50.074;21.904;2024-02-16T05:27:05;99752.90;;;-0.32;72.01
36138;BME280;67787;50.074;21.904;2024-02-16T05:29:33;99756.25;;;-0.34;72.23
36138;BME280;67787;50.074;21.904;2024-02-16T05:32:01;99758.71;;;-0.35;72.20
36138;BME280;67787;50.074;21.904;2024-02-16T05:34:30;99755.59;;;-0.36;72.23
36138;BME280;67787;50.074;21.904;2024-02-16T05:40:54;99759.09;;;-0.37;72.28
36138;BME280;67787;50.074;21.904;2024-02-16T05:43:24;99762.77;;;-0.39;72.31
36138;BME280;67787;50.074;21.904;2024-02-16T05:45:57;99762.42;;;-0.38;72.38
36138;BME280;67787;50.074;21.904;2024-02-16T05:48:30;99762.74;;;-0.37;72.37
36138;BME280;67787;50.074;21.904;2024-02-16T05:51:02;99764.75;;;-0.41;72.11
36138;BME280;67787;50.074;21.904;2024-02-16T05:53:34;99769.30;;;-0.43;72.28
36138;BME280;67787;50.074;21.904;2024-02-16T05:56:02;99770.19;;;-0.43;72.31
36138;BME280;67787;50.074;21.904;2024-02-16T05:58:31;99769.14;;;-0.43;72.34
36138;BME280;67787;50.074;21.904;2024-02-16T06:00:59;99771.91;;;-0.42;72.53
36138;BME280;67787;50.074;21.904;2024-02-16T06:03:35;99774.87;;;-0.42;72.38
36138;BME280;67787;50.074;21.904;2024-02-16T06:06:05;99773.27;;;-0.41;72.81
36138;BME280;67787;50.074;21.904;2024-02-16T06:08:34;99780.20;;;-0.38;72.68
36138;BME280;67787;50.074;21.904;2024-02-16T06:11:02;99780.67;;;-0.35;72.57
36138;BME280;67787;50.074;21.904;2024-02-16T06:13:30;99780.49;;;-0.35;72.48
36138;BME280;67787;50.074;21.904;2024-02-16T06:15:57;99785.71;;;-0.35;72.45
36138;BME280;67787;50.074;21.904;2024-02-16T06:18:25;99788.64;;;-0.32;72.57
36138;BME280;67787;50.074;21.904;2024-02-16T06:20:57;99789.65;;;-0.29;72.68
36138;BME280;67787;50.074;21.904;2024-02-16T06:23:25;99791.49;;;-0.25;72.56
36138;BME280;67787;50.074;21.904;2024-02-16T06:25:53;99790.20;;;-0.21;72.76
36138;BME280;67787;50.074;21.904;2024-02-16T06:28:21;99791.71;;;-0.18;72.65
36138;BME280;67787;50.074;21.904;2024-02-16T06:30:50;99792.92;;;-0.18;72.69
36138;BME280;67787;50.074;21.904;2024-02-16T06:33:18;99792.88;;;-0.15;72.86
36138;BME280;67787;50.074;21.904;2024-02-16T06:35:47;99797.16;;;-0.09;72.83
36138;BME280;67787;50.074;21.904;2024-02-16T06:38:18;99799.17;;;-0.05;72.84
36138;BME280;67787;50.074;21.904;2024-02-16T06:40:46;99798.77;;;-0.01;72.79
36138;BME280;67787;50.074;21.904;2024-02-16T06:43:14;99796.77;;;0.03;72.80
36138;BME280;67787;50.074;21.904;2024-02-16T06:45:42;99801.21;;;0.09;73.01
36138;BME280;67787;50.074;21.904;2024-02-16T06:48:10;99799.02;;;0.13;73.18
36138;BME280;67787;50.074;21.904;2024-02-16T06:50:38;99800.14;;;0.20;73.24
36138;BME280;67787;50.074;21.904;2024-02-16T06:53:06;99800.70;;;0.27;73.14
36138;BME280;67787;50.074;21.904;2024-02-16T06:55:33;99801.59;;;0.35;73.39
36138;BME280;67787;50.074;21.904;2024-02-16T06:58:01;99801.10;;;0.42;73.17
36138;BME280;67787;50.074;21.904;2024-02-16T07:00:29;99803.77;;;0.49;73.43
36138;BME280;67787;50.074;21.904;2024-02-16T07:02:57;99804.13;;;0.57;73.50
36138;BME280;67787;50.074;21.904;2024-02-16T07:05:25;99805.34;;;0.67;73.76
36138;BME280;67787;50.074;21.904;2024-02-16T07:07:55;99802.86;;;0.77;73.55
36138;BME280;67787;50.074;21.904;2024-02-16T07:10:23;99803.06;;;0.84;73.67
36138;BME280;67787;50.074;21.904;2024-02-16T07:12:52;99810.95;;;0.91;73.74
36138;BME280;67787;50.074;21.904;2024-02-16T07:15:19;99806.96;;;0.98;73.85
36138;BME280;67787;50.074;21.904;2024-02-16T07:17:47;99807.31;;;1.06;74.05
36138;BME280;67787;50.074;21.904;2024-02-16T07:20:15;99807.16;;;1.13;74.16
36138;BME280;67787;50.074;21.904;2024-02-16T07:22:44;99804.95;;;1.19;74.17
36138;BME280;67787;50.074;21.904;2024-02-16T07:25:14;99806.20;;;1.25;74.17
36138;BME280;67787;50.074;21.904;2024-02-16T07:27:42;99805.38;;;1.30;74.34
36138;BME280;67787;50.074;21.904;2024-02-16T07:30:10;99806.09;;;1.38;74.31
36138;BME280;67787;50.074;21.904;2024-02-16T07:32:50;99803.93;;;1.48;74.63
36138;BME280;67787;50.074;21.904;2024-02-16T07:35:21;99806.65;;;1.59;74.31
36138;BME280;67787;50.074;21.904;2024-02-16T07:37:52;99806.61;;;1.68;74.58
36138;BME280;67787;50.074;21.904;2024-02-16T07:40:24;99807.98;;;1.76;74.49
36138;BME280;67787;50.074;21.904;2024-02-16T07:42:52;99805.47;;;1.86;74.58
36138;BME280;67787;50.074;21.904;2024-02-16T07:45:21;99808.92;;;1.95;74.79
36138;BME280;67787;50.074;21.904;2024-02-16T07:48:13;99808.45;;;2.06;74.52
36138;BME280;67787;50.074;21.904;2024-02-16T07:51:39;99804.21;;;2.29;74.79
36138;BME280;67787;50.074;21.904;2024-02-16T07:54:33;99807.01;;;2.48;74.93
36138;BME280;67787;50.074;21.904;2024-02-16T07:57:04;99809.76;;;2.69;75.14
36138;BME280;67787;50.074;21.904;2024-02-16T07:59:32;99802.61;;;2.86;75.07
36138;BME280;67787;50.074;21.904;2024-02-16T08:02:14;99803.11;;;3.05;75.07
36138;BME280;67787;50.074;21.904;2024-02-16T08:04:49;99800.91;;;3.21;75.07
36138;BME280;67787;50.074;21.904;2024-02-16T08:07:17;99798.09;;;3.38;75.13
36138;BME280;67787;50.074;21.904;2024-02-16T08:09:46;99802.03;;;3.52;75.16
36138;BME280;67787;50.074;21.904;2024-02-16T08:12:15;99798.95;;;3.66;75.15
36138;BME280;67787;50.074;21.904;2024-02-16T08:14:44;99796.95;;;3.79;74.93
36138;BME280;67787;50.074;21.904;2024-02-16T08:17:13;99799.98;;;3.93;74.93
36138;BME280;67787;50.074;21.904;2024-02-16T08:19:52;99791.79;;;4.08;74.99
36138;BME280;67787;50.074;21.904;2024-02-16T08:22:22;99792.11;;;4.19;75.00
36138;BME280;67787;50.074;21.904;2024-02-16T08:24:50;99791.27;;;4.32;74.93
36138;BME280;67787;50.074;21.904;2024-02-16T08:27:18;99792.35;;;4.42;75.02
36138;BME280;67787;50.074;21.904;2024-02-16T08:29:46;99792.42;;;4.54;75.10
36138;BME280;67787;50.074;21.904;2024-02-16T08:32:13;99793.20;;;4.67;75.13
36138;BME280;67787;50.074;21.904;2024-02-16T08:34:44;99787.16;;;4.79;75.14
36138;BME280;67787;50.074;21.904;2024-02-16T08:37:12;99796.98;;;4.89;75.07
36138;BME280;67787;50.074;21.904;2024-02-16T08:39:40;99797.25;;;4.96;75.06
36138;BME280;67787;50.074;21.904;2024-02-16T08:42:09;99796.63;;;5.03;75.13
36138;BME280;67787;50.074;21.904;2024-02-16T08:44:40;99791.90;;;5.12;75.17
36138;BME280;67787;50.074;21.904;2024-02-16T08:47:09;99792.99;;;5.20;75.18
36138;BME280;67787;50.074;21.904;2024-02-16T08:49:37;99791.45;;;5.28;75.18
36138;BME280;67787;50.074;21.904;2024-02-16T08:52:06;99790.13;;;5.35;75.20
36138;BME280;67787;50.074;21.904;2024-02-16T08:54:34;99787.32;;;5.43;75.16
36138;BME280;67787;50.074;21.904;2024-02-16T08:57:02;99783.90;;;5.54;75.20
36138;BME280;67787;50.074;21.904;2024-02-16T08:59:30;99785.73;;;5.65;75.34
36138;BME280;67787;50.074;21.904;2024-02-16T09:01:58;99781.04;;;5.73;75.03
36138;BME280;67787;50.074;21.904;2024-02-16T09:04:26;99783.18;;;5.81;75.06
36138;BME280;67787;50.074;21.904;2024-02-16T09:06:54;99785.16;;;5.84;75.01
36138;BME280;67787;50.074;21.904;2024-02-16T09:09:22;99784.36;;;5.87;75.10
36138;BME280;67787;50.074;21.904;2024-02-16T09:11:50;99788.89;;;5.96;75.21
36138;BME280;67787;50.074;21.904;2024-02-16T09:14:18;99782.64;;;6.03;75.14
36138;BME280;67787;50.074;21.904;2024-02-16T09:16:49;99783.33;;;6.08;75.16
36138;BME280;67787;50.074;21.904;2024-02-16T09:19:20;99782.58;;;6.21;75.12
36138;BME280;67787;50.074;21.904;2024-02-16T09:21:49;99779.30;;;6.32;75.20
36138;BME280;67787;50.074;21.904;2024-02-16T09:24:21;99781.57;;;6.36;75.19
36138;BME280;67787;50.074;21.904;2024-02-16T09:26:49;99783.35;;;6.48;75.21
36138;BME280;67787;50.074;21.904;2024-02-16T09:29:17;99784.04;;;6.56;75.19
36138;BME280;67787;50.074;21.904;2024-02-16T09:31:49;99785.37;;;6.62;75.14
36138;BME280;67787;50.074;21.904;2024-02-16T09:34:18;99777.90;;;6.72;75.22
36138;BME280;67787;50.074;21.904;2024-02-16T09:36:46;99777.91;;;6.79;75.19
36138;BME280;67787;50.074;21.904;2024-02-16T09:39:14;99776.28;;;6.92;75.33
36138;BME280;67787;50.074;21.904;2024-02-16T09:41:42;99779.00;;;7.02;74.97
36138;BME280;67787;50.074;21.904;2024-02-16T09:44:13;99779.17;;;7.02;74.97
36138;BME280;67787;50.074;21.904;2024-02-16T09:46:41;99783.19;;;7.03;75.06
36138;BME280;67787;50.074;21.904;2024-02-16T09:49:09;99784.28;;;7.10;75.06
36138;BME280;67787;50.074;21.904;2024-02-16T09:51:38;99782.36;;;7.17;75.02
36138;BME280;67787;50.074;21.904;2024-02-16T09:54:06;99780.98;;;7.24;74.91
36138;BME280;67787;50.074;21.904;2024-02-16T09:56:35;99779.31;;;7.29;74.97
36138;BME280;67787;50.074;21.904;2024-02-16T09:59:03;99776.16;;;7.40;75.03
36138;BME280;67787;50.074;21.904;2024-02-16T10:01:35;99773.18;;;7.43;74.78
36138;BME280;67787;50.074;21.904;2024-02-16T10:04:07;99774.48;;;7.45;74.88
36138;BME280;67787;50.074;21.904;2024-02-16T10:06:47;99771.80;;;7.53;74.95
36138;BME280;67787;50.074;21.904;2024-02-16T10:09:25;99769.72;;;7.60;75.00
36138;BME280;67787;50.074;21.904;2024-02-16T10:11:53;99768.98;;;7.65;74.87
36138;BME280;67787;50.074;21.904;2024-02-16T10:14:21;99767.98;;;7.67;74.76
36138;BME280;67787;50.074;21.904;2024-02-16T10:17:02;99769.33;;;7.72;74.72
36138;BME280;67787;50.074;21.904;2024-02-16T10:19:30;99767.27;;;7.81;74.87
36138;BME280;67787;50.074;21.904;2024-02-16T10:22:12;99766.58;;;7.91;74.96
36138;BME280;67787;50.074;21.904;2024-02-16T10:24:41;99762.88;;;7.98;74.78
36138;BME280;67787;50.074;21.904;2024-02-16T10:27:15;99763.23;;;8.01;74.71
36138;BME280;67787;50.074;21.904;2024-02-16T10:29:47;99761.48;;;8.05;74.67
36138;BME280;67787;50.074;21.904;2024-02-16T10:32:19;99758.36;;;8.11;74.68
36138;BME280;67787;50.074;21.904;2024-02-16T10:34:47;99753.46;;;8.16;74.67
36138;BME280;67787;50.074;21.904;2024-02-16T10:37:17;99758.03;;;8.20;74.67
36138;BME280;67787;50.074;21.904;2024-02-16T10:39:46;99761.64;;;8.26;74.40
36138;BME280;67787;50.074;21.904;2024-02-16T10:42:16;99756.59;;;8.35;74.58
36138;BME280;67787;50.074;21.904;2024-02-16T10:44:45;99753.15;;;8.40;74.46
36138;BME280;67787;50.074;21.904;2024-02-16T10:47:14;99754.34;;;8.44;74.51
36138;BME280;67787;50.074;21.904;2024-02-16T10:49:41;99749.70;;;8.49;74.55
36138;BME280;67787;50.074;21.904;2024-02-16T10:52:11;99747.45;;;8.52;74.38
36138;BME280;67787;50.074;21.904;2024-02-16T10:54:42;99743.73;;;8.61;74.30
36138;BME280;67787;50.074;21.904;2024-02-16T10:57:11;99740.68;;;8.66;74.25
36138;BME280;67787;50.074;21.904;2024-02-16T10:59:42;99743.93;;;8.68;74.20
36138;BME280;67787;50.074;21.904;2024-02-16T11:03:38;99736.03;;;8.80;74.25
36138;BME280;67787;50.074;21.904;2024-02-16T11:06:16;99733.81;;;8.85;74.23
36138;BME280;67787;50.074;21.904;2024-02-16T11:08:48;99727.98;;;8.88;74.11
36138;BME280;67787;50.074;21.904;2024-02-16T11:11:23;99722.55;;;8.94;74.18
36138;BME280;67787;50.074;21.904;2024-02-16T11:13:54;99714.23;;;9.00;74.01
36138;BME280;67787;50.074;21.904;2024-02-16T11:16:22;99706.71;;;9.01;74.04
36138;BME280;67787;50.074;21.904;2024-02-16T11:18:50;99712.70;;;9.05;74.02
36138;BME280;67787;50.074;21.904;2024-02-16T11:21:18;99711.41;;;9.09;73.96
36138;BME280;67787;50.074;21.904;2024-02-16T11:23:46;99710.69;;;9.13;73.65
36138;BME280;67787;50.074;21.904;2024-02-16T11:26:17;99705.65;;;9.17;73.92
36138;BME280;67787;50.074;21.904;2024-02-16T11:28:45;99703.60;;;9.19;73.73
36138;BME280;67787;50.074;21.904;2024-02-16T11:31:13;99696.88;;;9.22;73.55
36138;BME280;67787;50.074;21.904;2024-02-16T11:33:44;99692.77;;;9.27;73.62
36138;BME280;67787;50.074;21.904;2024-02-16T11:36:13;99687.81;;;9.30;73.57
36138;BME280;67787;50.074;21.904;2024-02-16T11:38:41;99693.98;;;9.30;73.43
36138;BME280;67787;50.074;21.904;2024-02-16T11:41:09;99693.08;;;9.36;73.44
36138;BME280;67787;50.074;21.904;2024-02-16T11:43:37;99690.46;;;9.45;73.54
36138;BME280;67787;50.074;21.904;2024-02-16T11:46:15;99685.27;;;9.52;73.43
36138;BME280;67787;50.074;21.904;2024-02-16T11:48:44;99679.47;;;9.58;73.24
36138;BME280;67787;50.074;21.904;2024-02-16T11:51:15;99677.48;;;9.61;73.38
36138;BME280;67787;50.074;21.904;2024-02-16T11:53:55;99673.27;;;9.66;73.30
36138;BME280;67787;50.074;21.904;2024-02-16T11:56:24;99676.27;;;9.64;73.08
36138;BME280;67787;50.074;21.904;2024-02-16T11:58:53;99671.13;;;9.67;73.07
36138;BME280;67787;50.074;21.904;2024-02-16T12:01:22;99668.58;;;9.71;73.08
36138;BME280;67787;50.074;21.904;2024-02-16T12:03:50;99667.68;;;9.72;72.77
36138;BME280;67787;50.074;21.904;2024-02-16T12:06:21;99668.21;;;9.72;72.80
36138;BME280;67787;50.074;21.904;2024-02-16T12:08:50;99666.38;;;9.70;72.67
36138;BME280;67787;50.074;21.904;2024-02-16T12:11:20;99662.45;;;9.73;72.93
36138;BME280;67787;50.074;21.904;2024-02-16T12:13:49;99662.26;;;9.76;72.83
36138;BME280;67787;50.074;21.904;2024-02-16T12:16:18;99658.20;;;9.79;72.75
36138;BME280;67787;50.074;21.904;2024-02-16T12:18:46;99660.07;;;9.83;72.72
36138;BME280;67787;50.074;21.904;2024-02-16T12:21:17;99656.15;;;9.87;72.62
36138;BME280;67787;50.074;21.904;2024-02-16T12:23:47;99651.39;;;9.93;72.84
36138;BME280;67787;50.074;21.904;2024-02-16T12:26:15;99650.51;;;9.98;72.59
36138;BME280;67787;50.074;21.904;2024-02-16T12:28:43;99646.61;;;10.07;72.52
36138;BME280;67787;50.074;21.904;2024-02-16T12:31:18;99639.30;;;10.11;72.45
36138;BME280;67787;50.074;21.904;2024-02-16T12:33:46;99634.45;;;10.14;72.15
36138;BME280;67787;50.074;21.904;2024-02-16T12:36:15;99631.77;;;10.18;72.11
36138;BME280;67787;50.074;21.904;2024-02-16T12:38:43;99631.76;;;10.21;72.30
36138;BME280;67787;50.074;21.904;2024-02-16T12:41:11;99629.84;;;10.26;72.18
36138;BME280;67787;50.074;21.904;2024-02-16T12:43:38;99630.73;;;10.26;72.07
36138;BME280;67787;50.074;21.904;2024-02-16T12:46:06;99630.13;;;10.27;71.98
36138;BME280;67787;50.074;21.904;2024-02-16T12:48:34;99630.00;;;10.29;72.05
36138;BME280;67787;50.074;21.904;2024-02-16T12:51:02;99629.71;;;10.31;72.00
36138;BME280;67787;50.074;21.904;2024-02-16T12:53:30;99628.77;;;10.35;71.85
36138;BME280;67787;50.074;21.904;2024-02-16T12:56:08;99627.73;;;10.37;71.80
36138;BME280;67787;50.074;21.904;2024-02-16T12:58:36;99624.77;;;10.42;71.85
36138;BME280;67787;50.074;21.904;2024-02-16T13:01:05;99626.80;;;10.47;71.80
36138;BME280;67787;50.074;21.904;2024-02-16T13:03:47;99620.52;;;10.48;71.57
36138;BME280;67787;50.074;21.904;2024-02-16T13:06:14;99619.91;;;10.49;71.54
36138;BME280;67787;50.074;21.904;2024-02-16T13:08:43;99619.79;;;10.54;71.58
36138;BME280;67787;50.074;21.904;2024-02-16T13:11:11;99616.86;;;10.59;71.49
36138;BME280;67787;50.074;21.904;2024-02-16T13:13:40;99613.77;;;10.60;71.37
36138;BME280;67787;50.074;21.904;2024-02-16T13:16:08;99618.96;;;10.56;71.09
36138;BME280;67787;50.074;21.904;2024-02-16T13:18:36;99614.05;;;10.61;71.33
36138;BME280;67787;50.074;21.904;2024-02-16T13:21:04;99615.20;;;10.65;71.08
36138;BME280;67787;50.074;21.904;2024-02-16T13:23:32;99616.46;;;10.64;71.08
36138;BME280;67787;50.074;21.904;2024-02-16T13:26:00;99615.77;;;10.64;71.02
36138;BME280;67787;50.074;21.904;2024-02-16T13:28:28;99616.40;;;10.66;70.80
36138;BME280;67787;50.074;21.904;2024-02-16T13:30:55;99619.01;;;10.61;70.74
36138;BME280;67787;50.074;21.904;2024-02-16T13:33:23;99616.31;;;10.59;70.91
36138;BME280;67787;50.074;21.904;2024-02-16T13:35:51;99619.52;;;10.61;70.68
36138;BME280;67787;50.074;21.904;2024-02-16T13:38:19;99616.27;;;10.62;70.83
36138;BME280;67787;50.074;21.904;2024-02-16T13:40:47;99621.17;;;10.60;70.48
36138;BME280;67787;50.074;21.904;2024-02-16T13:43:17;99616.77;;;10.57;70.39
36138;BME280;67787;50.074;21.904;2024-02-16T13:45:50;99617.08;;;10.61;70.43
36138;BME280;67787;50.074;21.904;2024-02-16T13:48:19;99613.42;;;10.62;70.39
36138;BME280;67787;50.074;21.904;2024-02-16T13:50:48;99609.03;;;10.62;70.27
36138;BME280;67787;50.074;21.904;2024-02-16T13:53:16;99611.45;;;10.60;70.23
36138;BME280;67787;50.074;21.904;2024-02-16T13:55:49;99610.52;;;10.55;70.20
36138;BME280;67787;50.074;21.904;2024-02-16T13:58:17;99607.86;;;10.55;70.13
36138;BME280;67787;50.074;21.904;2024-02-16T14:00:45;99610.14;;;10.55;70.04
36138;BME280;67787;50.074;21.904;2024-02-16T14:03:14;99607.14;;;10.55;69.91
36138;BME280;67787;50.074;21.904;2024-02-16T14:05:45;99609.14;;;10.52;69.87
36138;BME280;67787;50.074;21.904;2024-02-16T14:08:14;99608.75;;;10.49;69.85
36138;BME280;67787;50.074;21.904;2024-02-16T14:10:54;99612.89;;;10.45;69.66
36138;BME280;67787;50.074;21.904;2024-02-16T14:13:28;99610.32;;;10.47;69.66
36138;BME280;67787;50.074;21.904;2024-02-16T14:15:56;99614.48;;;10.46;69.67
36138;BME280;67787;50.074;21.904;2024-02-16T14:18:24;99613.45;;;10.50;69.63
36138;BME280;67787;50.074;21.904;2024-02-16T14:21:02;99612.84;;;10.52;69.51
36138;BME280;67787;50.074;21.904;2024-02-16T14:23:31;99612.89;;;10.51;69.36
36138;BME280;67787;50.074;21.904;2024-02-16T14:25:59;99615.13;;;10.52;69.45
36138;BME280;67787;50.074;21.904;2024-02-16T14:28:27;99607.46;;;10.50;69.15
36138;BME280;67787;50.074;21.904;2024-02-16T14:30:55;99613.42;;;10.45;69.29
36138;BME280;67787;50.074;21.904;2024-02-16T14:33:23;99610.62;;;10.41;69.11
36138;BME280;67787;50.074;21.904;2024-02-16T14:36:02;99610.02;;;10.43;69.18
36138;BME280;67787;50.074;21.904;2024-02-16T14:38:30;99609.48;;;10.46;69.11
36138;BME280;67787;50.074;21.904;2024-02-16T14:40:58;99610.59;;;10.48;69.14
36138;BME280;67787;50.074;21.904;2024-02-16T14:43:32;99610.58;;;10.48;69.04
36138;BME280;67787;50.074;21.904;2024-02-16T14:46:01;99609.25;;;10.47;69.04
36138;BME280;67787;50.074;21.904;2024-02-16T14:48:32;99615.49;;;10.49;68.95
36138;BME280;67787;50.074;21.904;2024-02-16T14:51:00;99617.23;;;10.50;68.69
36138;BME280;67787;50.074;21.904;2024-02-16T14:53:29;99617.20;;;10.47;68.63
36138;BME280;67787;50.074;21.904;2024-02-16T14:56:01;99617.35;;;10.45;68.53
36138;BME280;67787;50.074;21.904;2024-02-16T14:58:33;99615.98;;;10.38;68.52
36138;BME280;67787;50.074;21.904;2024-02-16T15:01:01;99614.96;;;10.34;68.44
36138;BME280;67787;50.074;21.904;2024-02-16T15:03:30;99615.91;;;10.31;68.40
36138;BME280;67787;50.074;21.904;2024-02-16T15:05:58;99610.90;;;10.25;68.44
36138;BME280;67787;50.074;21.904;2024-02-16T15:08:26;99612.48;;;10.17;68.24
36138;BME280;67787;50.074;21.904;2024-02-16T15:10:55;99608.25;;;10.08;68.06
36138;BME280;67787;50.074;21.904;2024-02-16T15:13:23;99608.20;;;10.06;68.01
36138;BME280;67787;50.074;21.904;2024-02-16T15:15:52;99607.52;;;10.03;67.97
36138;BME280;67787;50.074;21.904;2024-02-16T15:18:20;99604.61;;;9.95;67.93
36138;BME280;67787;50.074;21.904;2024-02-16T15:20:48;99607.21;;;9.88;67.89
36138;BME280;67787;50.074;21.904;2024-02-16T15:23:20;99606.40;;;9.80;67.99
36138;BME280;67787;50.074;21.904;2024-02-16T15:25:48;99609.07;;;9.74;67.71
36138;BME280;67787;50.074;21.904;2024-02-16T15:28:16;99612.69;;;9.67;67.83
36138;BME280;67787;50.074;21.904;2024-02-16T15:30:44;99605.96;;;9.58;67.66
36138;BME280;67787;50.074;21.904;2024-02-16T15:33:12;99609.77;;;9.54;67.65
36138;BME280;67787;50.074;21.904;2024-02-16T15:35:41;99609.30;;;9.43;67.48
36138;BME280;67787;50.074;21.904;2024-02-16T15:38:09;99607.77;;;9.36;67.58
36138;BME280;67787;50.074;21.904;2024-02-16T15:40:36;99609.06;;;9.32;67.61
36138;BME280;67787;50.074;21.904;2024-02-16T15:43:05;99610.34;;;9.32;67.57
36138;BME280;67787;50.074;21.904;2024-02-16T15:45:38;99608.96;;;9.28;67.47
36138;BME280;67787;50.074;21.904;2024-02-16T15:48:09;99606.88;;;9.21;67.26
36138;BME280;67787;50.074;21.904;2024-02-16T15:50:38;99610.48;;;9.14;67.31
36138;BME280;67787;50.074;21.904;2024-02-16T15:53:07;99610.33;;;9.07;67.18
36138;BME280;67787;50.074;21.904;2024-02-16T15:55:34;99609.86;;;9.03;67.27
36138;BME280;67787;50.074;21.904;2024-02-16T15:58:03;99615.56;;;8.99;67.25
36138;BME280;67787;50.074;21.904;2024-02-16T16:00:31;99613.75;;;8.97;67.35
36138;BME280;67787;50.074;21.904;2024-02-16T16:02:59;99617.05;;;8.95;67.14